sensor_id;sensor_type;location;lat;lon;timestamp;P1;durP1;ratioP1;P2;durP2;ratioP2
14251;SDS011;7210;51.502;10.722;2023-09-12T00:00:47;9.97;;;8.00;;
14251;SDS011;7210;51.502;10.722;2023-09-12T00:03:17;9.10;;;7.77;;
14251;SDS011;7210;51.502;10.722;2023-09-12T00:05:50;12.77;;;8.27;;
14251;SDS011;7210;51.502;10.722;2023-09-12T00:08:18;11.07;;;8.20;;
14251;SDS011;7210;51.502;10.722;2023-09-12T00:10:45;11.77;;;8.77;;
14251;SDS011;7210;51.502;10.722;2023-09-12T00:13:19;13.00;;;9.07;;
14251;SDS011;7210;51.502;10.722;2023-09-12T00:15:47;13.47;;;9.00;;
14251;SDS011;7210;51.502;10.722;2023-09-12T00:18:14;9.47;;;8.37;;
14251;SDS011;7210;51.502;10.722;2023-09-12T00:20:41;12.37;;;8.63;;
14251;SDS011;7210;51.502;10.722;2023-09-12T00:23:08;13.30;;;8.93;;
14251;SDS011;7210;51.502;10.722;2023-09-12T00:25:36;12.47;;;8.90;;
14251;SDS011;7210;51.502;10.722;2023-09-12T00:28:03;11.70;;;9.57;;
14251;SDS011;7210;51.502;10.722;2023-09-12T00:30:32;9.83;;;8.83;;
14251;SDS011;7210;51.502;10.722;2023-09-12T00:33:00;10.13;;;9.17;;
14251;SDS011;7210;51.502;10.722;2023-09-12T00:35:27;10.83;;;8.87;;
14251;SDS011;7210;51.502;10.722;2023-09-12T00:37:54;12.10;;;10.03;;
14251;SDS011;7210;51.502;10.722;2023-09-12T00:40:22;11.30;;;9.07;;
14251;SDS011;7210;51.502;10.722;2023-09-12T00:42:49;10.83;;;8.57;;
14251;SDS011;7210;51.502;10.722;2023-09-12T00:45:16;12.47;;;8.80;;
14251;SDS011;7210;51.502;10.722;2023-09-12T00:47:45;11.80;;;8.80;;
14251;SDS011;7210;51.502;10.722;2023-09-12T00:50:15;13.97;;;9.13;;
14251;SDS011;7210;51.502;10.722;2023-09-12T00:52:44;11.63;;;8.93;;
14251;SDS011;7210;51.502;10.722;2023-09-12T00:55:12;10.93;;;8.77;;
14251;SDS011;7210;51.502;10.722;2023-09-12T00:57:40;9.77;;;8.77;;
14251;SDS011;7210;51.502;10.722;2023-09-12T01:00:10;12.93;;;9.03;;
14251;SDS011;7210;51.502;10.722;2023-09-12T01:02:40;11.13;;;9.00;;
14251;SDS011;7210;51.502;10.722;2023-09-12T01:05:11;11.83;;;9.43;;
14251;SDS011;7210;51.502;10.722;2023-09-12T01:07:40;12.13;;;8.93;;
14251;SDS011;7210;51.502;10.722;2023-09-12T01:10:09;11.97;;;10.20;;
14251;SDS011;7210;51.502;10.722;2023-09-12T01:12:37;10.30;;;9.13;;
14251;SDS011;7210;51.502;10.722;2023-09-12T01:15:04;9.77;;;8.83;;
14251;SDS011;7210;51.502;10.722;2023-09-12T01:17:39;9.67;;;8.53;;
14251;SDS011;7210;51.502;10.722;2023-09-12T01:20:09;10.07;;;9.03;;
14251;SDS011;7210;51.502;10.722;2023-09-12T01:26:00;12.77;;;9.60;;
14251;SDS011;7210;51.502;10.722;2023-09-12T01:28:46;11.87;;;9.40;;
14251;SDS011;7210;51.502;10.722;2023-09-12T01:31:16;10.50;;;9.40;;
14251;SDS011;7210;51.502;10.722;2023-09-12T01:33:45;11.40;;;10.20;;
14251;SDS011;7210;51.502;10.722;2023-09-12T01:36:14;12.53;;;9.53;;
14251;SDS011;7210;51.502;10.722;2023-09-12T01:38:42;11.00;;;9.93;;
14251;SDS011;7210;51.502;10.722;2023-09-12T01:41:09;14.37;;;10.30;;
14251;SDS011;7210;51.502;10.722;2023-09-12T01:43:42;13.93;;;9.87;;
14251;SDS011;7210;51.502;10.722;2023-09-12T01:46:13;10.77;;;9.03;;
14251;SDS011;7210;51.502;10.722;2023-09-12T01:48:45;12.10;;;9.90;;
14251;SDS011;7210;51.502;10.722;2023-09-12T01:51:16;9.80;;;8.80;;
14251;SDS011;7210;51.502;10.722;2023-09-12T01:53:45;9.60;;;8.63;;
14251;SDS011;7210;51.502;10.722;2023-09-12T01:56:18;10.17;;;9.17;;
14251;SDS011;7210;51.502;10.722;2023-09-12T01:58:49;10.67;;;9.30;;
14251;SDS011;7210;51.502;10.722;2023-09-12T02:01:17;11.67;;;9.40;;
14251;SDS011;7210;51.502;10.722;2023-09-12T02:03:44;11.27;;;10.03;;
14251;SDS011;7210;51.502;10.722;2023-09-12T02:06:12;12.50;;;10.67;;
14251;SDS011;7210;51.502;10.722;2023-09-12T02:08:39;10.73;;;9.03;;
14251;SDS011;7210;51.502;10.722;2023-09-12T02:11:08;12.93;;;9.70;;
14251;SDS011;7210;51.502;10.722;2023-09-12T02:13:35;10.77;;;8.67;;
14251;SDS011;7210;51.502;10.722;2023-09-12T02:16:04;9.73;;;8.63;;
14251;SDS011;7210;51.502;10.722;2023-09-12T02:18:31;11.13;;;10.03;;
14251;SDS011;7210;51.502;10.722;2023-09-12T02:20:59;10.60;;;9.60;;
14251;SDS011;7210;51.502;10.722;2023-09-12T02:23:36;11.00;;;9.67;;
14251;SDS011;7210;51.502;10.722;2023-09-12T02:26:04;10.10;;;9.03;;
14251;SDS011;7210;51.502;10.722;2023-09-12T02:28:31;10.17;;;9.17;;
14251;SDS011;7210;51.502;10.722;2023-09-12T02:30:59;10.97;;;9.87;;
14251;SDS011;7210;51.502;10.722;2023-09-12T02:33:27;12.10;;;9.47;;
14251;SDS011;7210;51.502;10.722;2023-09-12T02:35:55;10.20;;;9.20;;
14251;SDS011;7210;51.502;10.722;2023-09-12T02:38:22;13.73;;;10.00;;
14251;SDS011;7210;51.502;10.722;2023-09-12T02:40:54;9.67;;;8.73;;
14251;SDS011;7210;51.502;10.722;2023-09-12T02:43:23;12.73;;;9.50;;
14251;SDS011;7210;51.502;10.722;2023-09-12T02:45:50;15.03;;;10.97;;
14251;SDS011;7210;51.502;10.722;2023-09-12T02:48:18;14.27;;;11.03;;
14251;SDS011;7210;51.502;10.722;2023-09-12T02:50:47;11.37;;;10.17;;
14251;SDS011;7210;51.502;10.722;2023-09-12T02:53:18;10.43;;;9.13;;
14251;SDS011;7210;51.502;10.722;2023-09-12T02:55:45;13.00;;;9.90;;
14251;SDS011;7210;51.502;10.722;2023-09-12T02:58:18;11.63;;;9.07;;
14251;SDS011;7210;51.502;10.722;2023-09-12T03:00:45;12.10;;;9.17;;
14251;SDS011;7210;51.502;10.722;2023-09-12T03:03:15;12.60;;;9.17;;
14251;SDS011;7210;51.502;10.722;2023-09-12T03:05:58;14.10;;;10.20;;
14251;SDS011;7210;51.502;10.722;2023-09-12T03:08:25;10.67;;;8.60;;
14251;SDS011;7210;51.502;10.722;2023-09-12T03:10:54;13.00;;;9.60;;
14251;SDS011;7210;51.502;10.722;2023-09-12T03:13:22;12.10;;;9.50;;
14251;SDS011;7210;51.502;10.722;2023-09-12T03:15:51;10.97;;;8.97;;
14251;SDS011;7210;51.502;10.722;2023-09-12T03:18:18;11.47;;;9.07;;
14251;SDS011;7210;51.502;10.722;2023-09-12T03:20:46;10.13;;;8.17;;
14251;SDS011;7210;51.502;10.722;2023-09-12T03:23:14;9.57;;;8.57;;
14251;SDS011;7210;51.502;10.722;2023-09-12T03:25:42;10.83;;;8.80;;
14251;SDS011;7210;51.502;10.722;2023-09-12T03:28:09;11.97;;;9.20;;
14251;SDS011;7210;51.502;10.722;2023-09-12T03:30:42;10.23;;;9.23;;
14251;SDS011;7210;51.502;10.722;2023-09-12T03:33:09;10.57;;;9.57;;
14251;SDS011;7210;51.502;10.722;2023-09-12T03:35:37;13.27;;;10.90;;
14251;SDS011;7210;51.502;10.722;2023-09-12T03:38:04;14.63;;;9.70;;
14251;SDS011;7210;51.502;10.722;2023-09-12T03:40:33;11.00;;;9.80;;
14251;SDS011;7210;51.502;10.722;2023-09-12T03:43:00;10.87;;;8.23;;
14251;SDS011;7210;51.502;10.722;2023-09-12T03:45:27;10.47;;;9.40;;
14251;SDS011;7210;51.502;10.722;2023-09-12T03:47:55;10.90;;;9.30;;
14251;SDS011;7210;51.502;10.722;2023-09-12T03:50:24;16.17;;;10.37;;
14251;SDS011;7210;51.502;10.722;2023-09-12T03:52:51;12.77;;;10.07;;
14251;SDS011;7210;51.502;10.722;2023-09-12T03:55:19;17.57;;;10.57;;
14251;SDS011;7210;51.502;10.722;2023-09-12T03:57:47;12.77;;;10.27;;
14251;SDS011;7210;51.502;10.722;2023-09-12T04:00:15;11.83;;;9.83;;
14251;SDS011;7210;51.502;10.722;2023-09-12T04:02:46;11.87;;;10.57;;
14251;SDS011;7210;51.502;10.722;2023-09-12T04:05:18;12.37;;;10.63;;
14251;SDS011;7210;51.502;10.722;2023-09-12T04:07:45;15.30;;;11.80;;
14251;SDS011;7210;51.502;10.722;2023-09-12T04:10:14;11.60;;;10.40;;
14251;SDS011;7210;51.502;10.722;2023-09-12T04:12:43;13.90;;;10.33;;
14251;SDS011;7210;51.502;10.722;2023-09-12T04:15:12;12.53;;;9.57;;
14251;SDS011;7210;51.502;10.722;2023-09-12T04:17:39;12.67;;;10.23;;
14251;SDS011;7210;51.502;10.722;2023-09-12T04:20:12;13.00;;;9.20;;
14251;SDS011;7210;51.502;10.722;2023-09-12T04:22:40;10.47;;;9.47;;
14251;SDS011;7210;51.502;10.722;2023-09-12T04:25:08;12.00;;;10.57;;
14251;SDS011;7210;51.502;10.722;2023-09-12T04:27:35;16.53;;;10.87;;
14251;SDS011;7210;51.502;10.722;2023-09-12T04:30:03;11.77;;;9.33;;
14251;SDS011;7210;51.502;10.722;2023-09-12T04:32:34;11.10;;;9.27;;
14251;SDS011;7210;51.502;10.722;2023-09-12T04:35:06;12.93;;;10.33;;
14251;SDS011;7210;51.502;10.722;2023-09-12T04:37:34;12.07;;;9.57;;
14251;SDS011;7210;51.502;10.722;2023-09-12T04:40:02;15.13;;;9.57;;
14251;SDS011;7210;51.502;10.722;2023-09-12T04:42:32;12.50;;;9.43;;
14251;SDS011;7210;51.502;10.722;2023-09-12T04:44:59;14.30;;;9.63;;
14251;SDS011;7210;51.502;10.722;2023-09-12T04:47:26;9.77;;;8.87;;
14251;SDS011;7210;51.502;10.722;2023-09-12T04:49:55;10.30;;;8.43;;
14251;SDS011;7210;51.502;10.722;2023-09-12T04:52:22;9.57;;;8.60;;
14251;SDS011;7210;51.502;10.722;2023-09-12T04:54:50;10.07;;;9.00;;
14251;SDS011;7210;51.502;10.722;2023-09-12T04:57:17;10.00;;;9.00;;
14251;SDS011;7210;51.502;10.722;2023-09-12T04:59:44;12.40;;;8.70;;
14251;SDS011;7210;51.502;10.722;2023-09-12T05:02:12;9.90;;;8.90;;
14251;SDS011;7210;51.502;10.722;2023-09-12T05:04:48;9.37;;;8.50;;
14251;SDS011;7210;51.502;10.722;2023-09-12T05:07:17;10.43;;;8.93;;
14251;SDS011;7210;51.502;10.722;2023-09-12T05:09:44;15.47;;;10.20;;
14251;SDS011;7210;51.502;10.722;2023-09-12T05:12:11;14.37;;;10.30;;
14251;SDS011;7210;51.502;10.722;2023-09-12T05:14:39;11.17;;;9.53;;
14251;SDS011;7210;51.502;10.722;2023-09-12T05:17:06;12.50;;;9.57;;
14251;SDS011;7210;51.502;10.722;2023-09-12T05:19:33;13.57;;;10.10;;
14251;SDS011;7210;51.502;10.722;2023-09-12T05:22:01;15.60;;;10.73;;
14251;SDS011;7210;51.502;10.722;2023-09-12T05:24:31;13.00;;;11.73;;
14251;SDS011;7210;51.502;10.722;2023-09-12T05:26:59;18.27;;;11.93;;
14251;SDS011;7210;51.502;10.722;2023-09-12T05:29:26;17.30;;;13.10;;
14251;SDS011;7210;51.502;10.722;2023-09-12T05:31:53;14.07;;;12.73;;
14251;SDS011;7210;51.502;10.722;2023-09-12T05:34:24;14.87;;;12.00;;
14251;SDS011;7210;51.502;10.722;2023-09-12T05:36:54;14.77;;;13.17;;
14251;SDS011;7210;51.502;10.722;2023-09-12T05:39:22;13.67;;;12.30;;
14251;SDS011;7210;51.502;10.722;2023-09-12T05:41:56;12.03;;;10.47;;
14251;SDS011;7210;51.502;10.722;2023-09-12T05:44:23;13.23;;;11.93;;
14251;SDS011;7210;51.502;10.722;2023-09-12T05:46:51;14.23;;;11.90;;
14251;SDS011;7210;51.502;10.722;2023-09-12T05:49:18;14.20;;;11.67;;
14251;SDS011;7210;51.502;10.722;2023-09-12T05:51:47;13.63;;;12.23;;
14251;SDS011;7210;51.502;10.722;2023-09-12T05:54:16;14.77;;;12.30;;
14251;SDS011;7210;51.502;10.722;2023-09-12T05:56:44;15.47;;;12.83;;
14251;SDS011;7210;51.502;10.722;2023-09-12T05:59:14;12.97;;;11.70;;
14251;SDS011;7210;51.502;10.722;2023-09-12T06:01:43;15.03;;;12.43;;
14251;SDS011;7210;51.502;10.722;2023-09-12T06:04:10;17.87;;;12.93;;
14251;SDS011;7210;51.502;10.722;2023-09-12T06:06:37;15.03;;;13.10;;
14251;SDS011;7210;51.502;10.722;2023-09-12T06:09:06;17.10;;;14.80;;
14251;SDS011;7210;51.502;10.722;2023-09-12T06:11:34;21.57;;;14.93;;
14251;SDS011;7210;51.502;10.722;2023-09-12T06:14:01;16.00;;;14.37;;
14251;SDS011;7210;51.502;10.722;2023-09-12T06:16:31;17.73;;;15.00;;
14251;SDS011;7210;51.502;10.722;2023-09-12T06:18:59;15.53;;;13.83;;
14251;SDS011;7210;51.502;10.722;2023-09-12T06:21:26;16.43;;;14.73;;
14251;SDS011;7210;51.502;10.722;2023-09-12T06:24:07;16.10;;;14.60;;
14251;SDS011;7210;51.502;10.722;2023-09-12T06:26:42;13.53;;;12.23;;
14251;SDS011;7210;51.502;10.722;2023-09-12T06:29:10;14.77;;;12.73;;
14251;SDS011;7210;51.502;10.722;2023-09-12T06:31:50;12.93;;;11.50;;
14251;SDS011;7210;51.502;10.722;2023-09-12T06:34:17;14.67;;;12.27;;
14251;SDS011;7210;51.502;10.722;2023-09-12T06:36:44;13.70;;;11.50;;
14251;SDS011;7210;51.502;10.722;2023-09-12T06:39:12;21.43;;;12.20;;
14251;SDS011;7210;51.502;10.722;2023-09-12T06:41:39;13.70;;;10.63;;
14251;SDS011;7210;51.502;10.722;2023-09-12T06:44:06;14.17;;;10.60;;
14251;SDS011;7210;51.502;10.722;2023-09-12T06:46:33;18.30;;;12.37;;
14251;SDS011;7210;51.502;10.722;2023-09-12T06:49:04;19.07;;;13.27;;
14251;SDS011;7210;51.502;10.722;2023-09-12T06:51:31;16.63;;;11.57;;
14251;SDS011;7210;51.502;10.722;2023-09-12T06:53:58;15.03;;;11.73;;
14251;SDS011;7210;51.502;10.722;2023-09-12T06:59:15;17.07;;;12.07;;
14251;SDS011;7210;51.502;10.722;2023-09-12T07:01:42;13.47;;;11.10;;
14251;SDS011;7210;51.502;10.722;2023-09-12T07:04:11;12.50;;;10.67;;
14251;SDS011;7210;51.502;10.722;2023-09-12T07:06:39;14.63;;;10.87;;
14251;SDS011;7210;51.502;10.722;2023-09-12T07:09:12;14.83;;;10.53;;
14251;SDS011;7210;51.502;10.722;2023-09-12T07:11:40;14.67;;;10.83;;
14251;SDS011;7210;51.502;10.722;2023-09-12T07:14:08;15.23;;;10.83;;
14251;SDS011;7210;51.502;10.722;2023-09-12T07:16:36;10.43;;;9.03;;
14251;SDS011;7210;51.502;10.722;2023-09-12T07:19:06;12.40;;;10.07;;
14251;SDS011;7210;51.502;10.722;2023-09-12T07:21:36;14.47;;;10.00;;
14251;SDS011;7210;51.502;10.722;2023-09-12T07:24:03;16.47;;;10.90;;
14251;SDS011;7210;51.502;10.722;2023-09-12T07:26:32;15.97;;;10.13;;
14251;SDS011;7210;51.502;10.722;2023-09-12T07:28:59;14.57;;;9.73;;
14251;SDS011;7210;51.502;10.722;2023-09-12T07:31:29;18.50;;;10.27;;
14251;SDS011;7210;51.502;10.722;2023-09-12T07:33:57;12.53;;;9.57;;
14251;SDS011;7210;51.502;10.722;2023-09-12T07:36:24;11.43;;;10.00;;
14251;SDS011;7210;51.502;10.722;2023-09-12T07:38:53;12.10;;;9.43;;
14251;SDS011;7210;51.502;10.722;2023-09-12T07:41:20;11.67;;;9.50;;
14251;SDS011;7210;51.502;10.722;2023-09-12T07:43:47;14.90;;;9.03;;
14251;SDS011;7210;51.502;10.722;2023-09-12T07:46:14;13.43;;;9.20;;
14251;SDS011;7210;51.502;10.722;2023-09-12T07:48:42;14.20;;;9.30;;
14251;SDS011;7210;51.502;10.722;2023-09-12T07:51:12;12.57;;;9.67;;
14251;SDS011;7210;51.502;10.722;2023-09-12T07:53:42;17.97;;;10.80;;
14251;SDS011;7210;51.502;10.722;2023-09-12T07:56:11;16.10;;;10.17;;
14251;SDS011;7210;51.502;10.722;2023-09-12T07:58:38;14.27;;;9.23;;
14251;SDS011;7210;51.502;10.722;2023-09-12T08:01:05;17.07;;;10.80;;
14251;SDS011;7210;51.502;10.722;2023-09-12T08:03:33;12.00;;;9.57;;
14251;SDS011;7210;51.502;10.722;2023-09-12T08:06:01;14.73;;;9.70;;
14251;SDS011;7210;51.502;10.722;2023-09-12T08:08:29;14.23;;;9.70;;
14251;SDS011;7210;51.502;10.722;2023-09-12T08:10:57;15.77;;;8.47;;
14251;SDS011;7210;51.502;10.722;2023-09-12T08:13:27;10.03;;;8.17;;
14251;SDS011;7210;51.502;10.722;2023-09-12T08:15:56;17.10;;;8.87;;
14251;SDS011;7210;51.502;10.722;2023-09-12T08:18:25;15.57;;;7.80;;
14251;SDS011;7210;51.502;10.722;2023-09-12T08:20:56;9.03;;;7.33;;
14251;SDS011;7210;51.502;10.722;2023-09-12T08:23:24;11.13;;;7.80;;
14251;SDS011;7210;51.502;10.722;2023-09-12T08:26:00;10.00;;;7.33;;
14251;SDS011;7210;51.502;10.722;2023-09-12T08:28:29;7.83;;;7.00;;
14251;SDS011;7210;51.502;10.722;2023-09-12T08:30:56;8.37;;;7.13;;
14251;SDS011;7210;51.502;10.722;2023-09-12T08:33:23;11.07;;;7.00;;
14251;SDS011;7210;51.502;10.722;2023-09-12T08:35:50;10.43;;;6.93;;
14251;SDS011;7210;51.502;10.722;2023-09-12T08:38:18;10.60;;;7.43;;
14251;SDS011;7210;51.502;10.722;2023-09-12T08:40:49;8.40;;;7.15;;
14251;SDS011;7210;51.502;10.722;2023-09-12T08:43:16;8.70;;;6.97;;
14251;SDS011;7210;51.502;10.722;2023-09-12T08:45:45;12.85;;;7.63;;
14251;SDS011;7210;51.502;10.722;2023-09-12T08:48:13;13.02;;;7.22;;
14251;SDS011;7210;51.502;10.722;2023-09-12T08:50:43;8.82;;;5.72;;
14251;SDS011;7210;51.502;10.722;2023-09-12T08:53:14;4.80;;;4.30;;
14251;SDS011;7210;51.502;10.722;2023-09-12T08:55:42;4.28;;;3.92;;
14251;SDS011;7210;51.502;10.722;2023-09-12T08:58:09;5.88;;;4.32;;
14251;SDS011;7210;51.502;10.722;2023-09-12T09:00:37;6.47;;;4.35;;
14251;SDS011;7210;51.502;10.722;2023-09-12T09:03:06;7.28;;;4.07;;
14251;SDS011;7210;51.502;10.722;2023-09-12T09:05:34;4.22;;;3.83;;
14251;SDS011;7210;51.502;10.722;2023-09-12T09:08:03;5.80;;;4.22;;
14251;SDS011;7210;51.502;10.722;2023-09-12T09:10:32;3.90;;;3.53;;
14251;SDS011;7210;51.502;10.722;2023-09-12T09:13:00;4.85;;;3.92;;
14251;SDS011;7210;51.502;10.722;2023-09-12T09:18:54;4.13;;;3.70;;
14251;SDS011;7210;51.502;10.722;2023-09-12T09:21:31;4.45;;;3.88;;
14251;SDS011;7210;51.502;10.722;2023-09-12T09:23:59;7.70;;;7.03;;
14251;SDS011;7210;51.502;10.722;2023-09-12T09:29:24;4.85;;;3.90;;
14251;SDS011;7210;51.502;10.722;2023-09-12T09:31:51;4.65;;;4.03;;
14251;SDS011;7210;51.502;10.722;2023-09-12T09:34:20;4.32;;;3.90;;
14251;SDS011;7210;51.502;10.722;2023-09-12T09:36:49;6.10;;;3.75;;
14251;SDS011;7210;51.502;10.722;2023-09-12T09:39:18;5.30;;;4.07;;
14251;SDS011;7210;51.502;10.722;2023-09-12T09:41:48;4.47;;;3.72;;
14251;SDS011;7210;51.502;10.722;2023-09-12T09:44:17;4.40;;;3.63;;
14251;SDS011;7210;51.502;10.722;2023-09-12T09:46:50;4.45;;;3.50;;
14251;SDS011;7210;51.502;10.722;2023-09-12T09:49:26;4.65;;;3.80;;
14251;SDS011;7210;51.502;10.722;2023-09-12T09:51:54;5.03;;;4.13;;
14251;SDS011;7210;51.502;10.722;2023-09-12T09:54:23;5.30;;;4.43;;
14251;SDS011;7210;51.502;10.722;2023-09-12T09:56:53;6.18;;;4.03;;
14251;SDS011;7210;51.502;10.722;2023-09-12T09:59:25;4.45;;;3.30;;
14251;SDS011;7210;51.502;10.722;2023-09-12T10:01:55;5.13;;;3.80;;
14251;SDS011;7210;51.502;10.722;2023-09-12T10:04:26;4.47;;;3.88;;
14251;SDS011;7210;51.502;10.722;2023-09-12T10:07:00;4.15;;;3.75;;
14251;SDS011;7210;51.502;10.722;2023-09-12T10:09:28;5.57;;;3.63;;
14251;SDS011;7210;51.502;10.722;2023-09-12T10:11:58;5.53;;;4.35;;
14251;SDS011;7210;51.502;10.722;2023-09-12T10:14:26;3.85;;;3.45;;
14251;SDS011;7210;51.502;10.722;2023-09-12T10:16:57;4.18;;;3.72;;
14251;SDS011;7210;51.502;10.722;2023-09-12T10:19:32;4.85;;;3.55;;
14251;SDS011;7210;51.502;10.722;2023-09-12T10:22:06;5.40;;;4.40;;
14251;SDS011;7210;51.502;10.722;2023-09-12T10:24:43;5.93;;;3.70;;
14251;SDS011;7210;51.502;10.722;2023-09-12T10:27:12;4.57;;;3.60;;
14251;SDS011;7210;51.502;10.722;2023-09-12T10:29:42;4.82;;;3.38;;
14251;SDS011;7210;51.502;10.722;2023-09-12T10:32:24;8.15;;;3.95;;
14251;SDS011;7210;51.502;10.722;2023-09-12T10:34:57;5.28;;;4.38;;
14251;SDS011;7210;51.502;10.722;2023-09-12T10:37:30;3.75;;;3.38;;
14251;SDS011;7210;51.502;10.722;2023-09-12T10:40:07;6.43;;;3.97;;
14251;SDS011;7210;51.502;10.722;2023-09-12T10:42:37;7.07;;;3.95;;
14251;SDS011;7210;51.502;10.722;2023-09-12T10:45:08;4.22;;;3.83;;
14251;SDS011;7210;51.502;10.722;2023-09-12T10:47:36;5.93;;;3.97;;
14251;SDS011;7210;51.502;10.722;2023-09-12T10:50:06;5.25;;;3.60;;
14251;SDS011;7210;51.502;10.722;2023-09-12T10:52:36;4.00;;;3.60;;
14251;SDS011;7210;51.502;10.722;2023-09-12T10:55:06;5.35;;;4.00;;
14251;SDS011;7210;51.502;10.722;2023-09-12T10:57:34;4.20;;;3.80;;
14251;SDS011;7210;51.502;10.722;2023-09-12T11:00:29;6.35;;;4.28;;
14251;SDS011;7210;51.502;10.722;2023-09-12T11:02:58;5.68;;;3.92;;
14251;SDS011;7210;51.502;10.722;2023-09-12T11:05:37;5.65;;;4.07;;
14251;SDS011;7210;51.502;10.722;2023-09-12T11:08:18;5.20;;;3.70;;
14251;SDS011;7210;51.502;10.722;2023-09-12T11:10:48;6.18;;;4.10;;
14251;SDS011;7210;51.502;10.722;2023-09-12T11:13:46;7.72;;;4.30;;
14251;SDS011;7210;51.502;10.722;2023-09-12T11:16:28;5.20;;;4.10;;
14251;SDS011;7210;51.502;10.722;2023-09-12T11:19:12;5.47;;;3.85;;
14251;SDS011;7210;51.502;10.722;2023-09-12T11:21:51;5.38;;;4.13;;
14251;SDS011;7210;51.502;10.722;2023-09-12T11:24:24;5.75;;;3.63;;
14251;SDS011;7210;51.502;10.722;2023-09-12T11:26:53;4.82;;;3.70;;
14251;SDS011;7210;51.502;10.722;2023-09-12T11:29:34;4.53;;;3.45;;
14251;SDS011;7210;51.502;10.722;2023-09-12T11:32:04;5.13;;;3.78;;
14251;SDS011;7210;51.502;10.722;2023-09-12T11:34:36;3.63;;;3.33;;
14251;SDS011;7210;51.502;10.722;2023-09-12T11:37:06;5.47;;;3.78;;
14251;SDS011;7210;51.502;10.722;2023-09-12T11:39:34;6.30;;;3.90;;
14251;SDS011;7210;51.502;10.722;2023-09-12T11:42:05;5.05;;;4.10;;
14251;SDS011;7210;51.502;10.722;2023-09-12T11:44:39;5.20;;;3.63;;
14251;SDS011;7210;51.502;10.722;2023-09-12T11:47:10;7.90;;;4.45;;
14251;SDS011;7210;51.502;10.722;2023-09-12T11:49:38;8.30;;;4.78;;
14251;SDS011;7210;51.502;10.722;2023-09-12T11:52:09;9.13;;;4.63;;
14251;SDS011;7210;51.502;10.722;2023-09-12T11:54:38;7.13;;;4.85;;
14251;SDS011;7210;51.502;10.722;2023-09-12T11:57:13;6.47;;;4.30;;
14251;SDS011;7210;51.502;10.722;2023-09-12T11:59:43;6.93;;;4.40;;
14251;SDS011;7210;51.502;10.722;2023-09-12T12:02:18;7.50;;;4.72;;
14251;SDS011;7210;51.502;10.722;2023-09-12T12:04:46;9.43;;;4.78;;
14251;SDS011;7210;51.502;10.722;2023-09-12T12:07:20;8.10;;;4.88;;
14251;SDS011;7210;51.502;10.722;2023-09-12T12:09:48;7.20;;;4.10;;
14251;SDS011;7210;51.502;10.722;2023-09-12T12:12:17;6.68;;;4.03;;
14251;SDS011;7210;51.502;10.722;2023-09-12T12:14:44;7.65;;;3.97;;
14251;SDS011;7210;51.502;10.722;2023-09-12T12:17:11;6.43;;;4.20;;
14251;SDS011;7210;51.502;10.722;2023-09-12T12:19:39;9.30;;;4.28;;
14251;SDS011;7210;51.502;10.722;2023-09-12T12:22:12;6.57;;;4.53;;
14251;SDS011;7210;51.502;10.722;2023-09-12T12:24:42;8.13;;;4.50;;
14251;SDS011;7210;51.502;10.722;2023-09-12T12:27:14;9.45;;;4.15;;
14251;SDS011;7210;51.502;10.722;2023-09-12T12:29:42;5.85;;;3.53;;
14251;SDS011;7210;51.502;10.722;2023-09-12T12:32:14;6.18;;;4.35;;
14251;SDS011;7210;51.502;10.722;2023-09-12T12:34:44;7.78;;;4.43;;
14251;SDS011;7210;51.502;10.722;2023-09-12T12:37:14;6.65;;;3.90;;
14251;SDS011;7210;51.502;10.722;2023-09-12T12:39:43;6.38;;;3.65;;
14251;SDS011;7210;51.502;10.722;2023-09-12T12:42:12;7.63;;;3.92;;
14251;SDS011;7210;51.502;10.722;2023-09-12T12:44:40;6.05;;;3.38;;
14251;SDS011;7210;51.502;10.722;2023-09-12T12:47:12;6.60;;;4.07;;
14251;SDS011;7210;51.502;10.722;2023-09-12T12:49:40;5.78;;;3.58;;
14251;SDS011;7210;51.502;10.722;2023-09-12T12:52:09;4.50;;;3.65;;
14251;SDS011;7210;51.502;10.722;2023-09-12T12:54:37;5.03;;;3.88;;
14251;SDS011;7210;51.502;10.722;2023-09-12T12:57:05;10.13;;;5.15;;
14251;SDS011;7210;51.502;10.722;2023-09-12T12:59:37;5.22;;;3.80;;
14251;SDS011;7210;51.502;10.722;2023-09-12T13:02:05;6.15;;;4.00;;
14251;SDS011;7210;51.502;10.722;2023-09-12T13:04:36;9.13;;;4.40;;
14251;SDS011;7210;51.502;10.722;2023-09-12T13:07:04;6.25;;;3.80;;
14251;SDS011;7210;51.502;10.722;2023-09-12T13:09:36;8.25;;;4.32;;
14251;SDS011;7210;51.502;10.722;2023-09-12T13:12:06;8.85;;;4.72;;
14251;SDS011;7210;51.502;10.722;2023-09-12T13:14:34;7.68;;;3.90;;
14251;SDS011;7210;51.502;10.722;2023-09-12T13:17:01;5.13;;;3.50;;
14251;SDS011;7210;51.502;10.722;2023-09-12T13:19:29;8.73;;;3.70;;
14251;SDS011;7210;51.502;10.722;2023-09-12T13:21:57;7.28;;;3.67;;
14251;SDS011;7210;51.502;10.722;2023-09-12T13:24:24;7.45;;;3.95;;
14251;SDS011;7210;51.502;10.722;2023-09-12T13:26:51;8.43;;;3.58;;
14251;SDS011;7210;51.502;10.722;2023-09-12T13:29:20;9.15;;;4.07;;
14251;SDS011;7210;51.502;10.722;2023-09-12T13:31:47;7.57;;;4.25;;
14251;SDS011;7210;51.502;10.722;2023-09-12T13:34:14;8.38;;;4.22;;
14251;SDS011;7210;51.502;10.722;2023-09-12T13:36:43;7.07;;;4.30;;
14251;SDS011;7210;51.502;10.722;2023-09-12T13:39:10;7.57;;;4.22;;
14251;SDS011;7210;51.502;10.722;2023-09-12T13:41:38;6.25;;;4.32;;
14251;SDS011;7210;51.502;10.722;2023-09-12T13:44:05;8.15;;;4.20;;
14251;SDS011;7210;51.502;10.722;2023-09-12T13:46:34;9.13;;;4.35;;
14251;SDS011;7210;51.502;10.722;2023-09-12T13:49:01;7.40;;;4.40;;
14251;SDS011;7210;51.502;10.722;2023-09-12T13:51:28;5.90;;;3.63;;
14251;SDS011;7210;51.502;10.722;2023-09-12T13:53:56;4.80;;;3.25;;
14251;SDS011;7210;51.502;10.722;2023-09-12T13:56:23;6.00;;;3.83;;
14251;SDS011;7210;51.502;10.722;2023-09-12T13:58:54;6.45;;;4.43;;
14251;SDS011;7210;51.502;10.722;2023-09-12T14:01:22;8.70;;;4.00;;
14251;SDS011;7210;51.502;10.722;2023-09-12T14:03:50;6.03;;;4.22;;
14251;SDS011;7210;51.502;10.722;2023-09-12T14:06:18;4.13;;;2.58;;
14251;SDS011;7210;51.502;10.722;2023-09-12T14:08:48;3.45;;;2.50;;
14251;SDS011;7210;51.502;10.722;2023-09-12T14:11:15;5.90;;;3.08;;
14251;SDS011;7210;51.502;10.722;2023-09-12T14:13:43;6.78;;;3.55;;
14251;SDS011;7210;51.502;10.722;2023-09-12T14:16:10;11.45;;;4.82;;
14251;SDS011;7210;51.502;10.722;2023-09-12T14:18:37;9.68;;;4.95;;
14251;SDS011;7210;51.502;10.722;2023-09-12T14:21:06;9.75;;;4.80;;
14251;SDS011;7210;51.502;10.722;2023-09-12T14:23:33;10.68;;;3.65;;
14251;SDS011;7210;51.502;10.722;2023-09-12T14:26:02;3.88;;;3.50;;
14251;SDS011;7210;51.502;10.722;2023-09-12T14:28:29;4.43;;;2.63;;
14251;SDS011;7210;51.502;10.722;2023-09-12T14:30:57;4.88;;;2.75;;
14251;SDS011;7210;51.502;10.722;2023-09-12T14:33:24;2.97;;;2.55;;
14251;SDS011;7210;51.502;10.722;2023-09-12T14:35:52;4.63;;;3.00;;
14251;SDS011;7210;51.502;10.722;2023-09-12T14:38:20;7.97;;;2.85;;
14251;SDS011;7210;51.502;10.722;2023-09-12T14:40:47;4.28;;;2.97;;
14251;SDS011;7210;51.502;10.722;2023-09-12T14:43:15;4.88;;;3.28;;
14251;SDS011;7210;51.502;10.722;2023-09-12T14:45:42;6.72;;;3.22;;
14251;SDS011;7210;51.502;10.722;2023-09-12T14:48:09;6.55;;;3.53;;
14251;SDS011;7210;51.502;10.722;2023-09-12T14:50:36;6.82;;;3.67;;
14251;SDS011;7210;51.502;10.722;2023-09-12T14:53:04;7.20;;;3.00;;
14251;SDS011;7210;51.502;10.722;2023-09-12T14:55:38;4.25;;;2.85;;
14251;SDS011;7210;51.502;10.722;2023-09-12T14:58:12;3.67;;;3.20;;
14251;SDS011;7210;51.502;10.722;2023-09-12T15:00:39;4.43;;;3.08;;
14251;SDS011;7210;51.502;10.722;2023-09-12T15:03:07;6.65;;;3.28;;